Time;durP1;ratioP1;P1;durP2;ratioP2;P2;SDS_P1;SDS_P2;PMS_P1;PMS_P2;Temp;Humidity;BMP_temperature;BMP_pressure;BME280_temperature;BME280_humidity;BME280_pressure;Samples;Min_cycle;Max_cycle;Signal;HPM_P1;HPM_P2
2023/12/05 06:20:51;;;;;;;;;;;;;;;;;;;;;
2023/12/05 07:03:26;;;;;;;;;;;1.10;80.70;;;;;;3867741;30;19926;-82
2023/12/05 07:05:29;;;;;;;;;;;1.40;80.70;;;;;;3861713;30;19919;-83
2023/12/05 07:25:39;;;;;;;;;;;1.10;80.20;;;;;;5239273;22;20313;-84
2023/12/05 07:28:27;;;;;;;;;;;1.10;79.70;;;;;;5201898;22;19911;-82
2023/12/05 08:36:03;;;;;;;;;;;0.70;79.50;;;;;;5116888;23;19931;-80
2023/12/05 08:58:42;;;;;;;;;;;0.80;79.30;;;;;;4905721;24;19931;-83
2023/12/05 10:03:45;;;;;;;;;;;;;;;;;;;;;
2023/12/05 10:09:36;;;;;;;;;;;0.90;79.80;;;;;;5013846;23;19985;-82
2023/12/05 10:18:30;;;;;;;;;;;0.90;79.60;;;;;;5015957;23;19914;-82
2023/12/05 11:35:08;;;;;;;;;;;1.20;81.30;;;;;;5172819;22;19923;-80
2023/12/05 11:40:55;;;;;;;;;;;1.10;81.70;;;;;;5091291;23;19952;-79
2023/12/05 11:43:25;;;;;;;;;;;1.10;81.90;;;;;;5065642;23;20012;-79
2023/12/05 11:46:02;;;;;;;;;;;1.10;81.70;;;;;;5090878;23;19905;-80
2023/12/05 12:29:48;;;;;;;;;;;0.60;85.40;;;;;;5193776;22;19927;-80
2023/12/05 12:35:41;;;;;;;;;;;0.70;85.60;;;;;;5041697;23;19912;-81
2023/12/05 12:37:56;;;;;;;;;;;0.70;86.40;;;;;;5045200;23;19955;-80
2023/12/05 12:40:33;;;;;;;;;;;0.80;85.70;;;;;;4903983;24;19912;-80
2023/12/05 12:51:42;;;;;;;;;;;0.60;85.40;;;;;;5025553;23;19976;-81
2023/12/05 12:58:13;;;;;;;;;;;0.70;86.00;;;;;;4902311;24;20335;-80
2023/12/05 13:06:23;;;;;;;;;;;;;;;;;;;;;
2023/12/05 13:19:07;;;;;;;;;;;;;;;;;;;;;
2023/12/05 13:29:56;;;;;;;;;;;;;;;;;;;;;
2023/12/05 13:39:08;;;;;;;;;;;0.70;86.80;;;;;;5041091;23;20014;-83
2023/12/05 14:33:55;;;;;;;;;;;;;;;;;;;;;
2023/12/05 14:40:11;;;;;;;;;;;0.80;85.50;;;;;;5037996;23;19924;-82
2023/12/05 14:46:33;;;;;;;;;;;;;;;;;;;;;
2023/12/05 15:09:42;;;;;;;;;;;0.50;86.10;;;;;;5160398;22;19924;-80
2023/12/05 15:19:19;;;;;;;;;;;;;;;;;;;;;
2023/12/05 15:42:31;;;;;;;;;;;;;;;;;;;;;
2023/12/05 15:47:01;;;;;;;;;;;0.30;86.80;;;;;;5204918;22;19930;-82
2023/12/05 15:55:13;;;;;;;;;;;0.30;87.70;;;;;;5191471;22;19934;-80
2023/12/05 15:58:12;;;;;;;;;;;;;;;;;;;;;
2023/12/05 16:01:13;;;;;;;;;;;0.40;87.40;;;;;;5114372;23;19908;-80
2023/12/05 16:12:40;;;;;;;;;;;0.40;88.30;;;;;;5110867;23;19927;-80
2023/12/05 16:15:32;;;;;;;;;;;;;;;;;;;;;
2023/12/05 16:18:14;;;;;;;;;;;0.20;88.40;;;;;;5035304;23;20362;-79
2023/12/05 16:20:35;;;;;;;;;;;0.40;88.20;;;;;;5037954;23;19909;-81
2023/12/05 16:26:09;;;;;;;;;;;0.40;87.90;;;;;;5037279;23;19925;-82
2023/12/05 16:28:58;;;;;;;;;;;0.40;87.90;;;;;;5006257;23;20227;-80
2023/12/05 16:31:54;;;;;;;;;;;0.60;88.00;;;;;;4965638;23;19914;-80
2023/12/05 16:36:37;;;;;;;;;;;0.40;87.60;;;;;;5189391;22;19938;-81
2023/12/05 16:39:24;;;;;;;;;;;0.50;88.30;;;;;;5149520;22;19927;-80
2023/12/05 16:42:04;;;;;;;;;;;0.50;87.60;;;;;;5189800;22;19921;-80
2023/12/05 16:44:56;;;;;;;;;;;;;;;;;;;;;
2023/12/05 16:47:18;;;;;;;;;;;0.50;88.00;;;;;;5206811;22;19926;-80
2023/12/05 16:57:59;;;;;;;;;;;;;;;;;;;;;
2023/12/05 17:00:47;;;;;;;;;;;0.10;88.90;;;;;;5040195;23;19913;-79
2023/12/05 17:06:18;;;;;;;;;;;0.20;89.40;;;;;;5028905;23;19984;-79
2023/12/05 17:08:58;;;;;;;;;;;;;;;;;;;;;
2023/12/05 17:11:22;;;;;;;;;;;0.10;89.20;;;;;;5109727;23;19912;-79
2023/12/05 17:13:48;;;;;;;;;;;0.30;89.60;;;;;;5105373;22;19924;-79
2023/12/05 17:16:24;;;;;;;;;;;0.20;89.40;;;;;;5157340;23;20353;-79
2023/12/05 17:18:56;;;;;;;;;;;0.10;89.30;;;;;;5123448;23;19915;-79
2023/12/05 17:35:14;;;;;;;;;;;0.10;89.90;;;;;;4989454;23;19921;-79
2023/12/05 17:37:51;;;;;;;;;;;0.00;89.90;;;;;;4991529;23;19969;-79
2023/12/05 17:39:52;;;;;;;;;;;0.00;89.80;;;;;;4964782;23;19911;-79
2023/12/05 17:42:34;;;;;;;;;;;-0.20;89.90;;;;;;4966029;23;19920;-79
2023/12/05 17:45:19;;;;;;;;;;;-0.20;90.10;;;;;;4960450;23;19921;-79
2023/12/05 17:47:53;;;;;;;;;;;-0.30;90.10;;;;;;4965465;23;19953;-79
2023/12/05 17:50:31;;;;;;;;;;;-0.20;90.40;;;;;;4966440;23;20426;-79
2023/12/05 17:53:01;;;;;;;;;;;-0.10;90.40;;;;;;4965630;23;19985;-78
2023/12/05 17:55:39;;;;;;;;;;;-0.10;90.40;;;;;;4965817;23;19906;-80
2023/12/05 18:03:26;;;;;;;;;;;-0.10;90.60;;;;;;4920768;24;19911;-80
2023/12/05 18:05:29;;;;;;;;;;;-0.10;90.50;;;;;;4874574;24;20345;-78
2023/12/05 18:07:52;;;;;;;;;;;0.00;90.60;;;;;;4891337;24;19912;-79
2023/12/05 18:10:14;;;;;;;;;;;-0.10;90.60;;;;;;4920384;24;19915;-80
2023/12/05 18:12:32;;;;;;;;;;;0.00;90.70;;;;;;4954597;23;19917;-79
2023/12/05 18:18:17;;;;;;;;;;;-0.10;90.70;;;;;;4967543;23;19929;-80
2023/12/05 18:20:59;;;;;;;;;;;-0.10;90.60;;;;;;4947513;23;19959;-79
2023/12/05 18:23:41;;;;;;;;;;;;;;;;;;;;;
2023/12/05 18:26:18;;;;;;;;;;;0.00;90.60;;;;;;4965045;23;19911;-79
2023/12/05 18:28:48;;;;;;;;;;;-0.10;90.40;;;;;;4967676;23;19913;-79
2023/12/05 18:31:17;;;;;;;;;;;0.00;90.60;;;;;;4945395;23;20391;-79
2023/12/05 18:33:43;;;;;;;;;;;0.00;90.60;;;;;;4966143;23;19910;-80
2023/12/05 18:36:20;;;;;;;;;;;0.00;90.50;;;;;;4943890;23;20497;-79
2023/12/05 18:41:17;;;;;;;;;;;-0.10;90.50;;;;;;4935478;24;19918;-80
2023/12/05 18:45:42;;;;;;;;;;;-0.20;90.40;;;;;;5204301;22;20263;-81
2023/12/05 18:51:08;;;;;;;;;;;-0.10;90.30;;;;;;5110563;23;19916;-80
2023/12/05 18:53:09;;;;;;;;;;;-0.10;90.40;;;;;;4989020;23;19941;-81
2023/12/05 18:55:10;;;;;;;;;;;-0.10;90.50;;;;;;4966367;23;19931;-81
2023/12/05 18:57:10;;;;;;;;;;;0.00;90.60;;;;;;4990077;23;19910;-80
2023/12/05 18:59:16;;;;;;;;;;;-0.20;90.40;;;;;;4968003;23;19910;-80
2023/12/05 19:01:16;;;;;;;;;;;-0.10;90.40;;;;;;4968614;23;19907;-81
2023/12/05 19:03:17;;;;;;;;;;;-0.10;90.30;;;;;;4993476;23;19910;-81
2023/12/05 19:05:19;;;;;;;;;;;-0.20;90.20;;;;;;4991686;23;19979;-81
2023/12/05 19:07:40;;;;;;;;;;;-0.20;90.40;;;;;;4992036;23;19955;-80
2023/12/05 19:10:00;;;;;;;;;;;-0.20;90.40;;;;;;4991757;23;19986;-80
2023/12/05 19:12:21;;;;;;;;;;;-0.10;90.40;;;;;;4991185;23;20442;-81
2023/12/05 19:14:42;;;;;;;;;;;-0.20;90.50;;;;;;4990067;23;19949;-81
2023/12/05 19:17:05;;;;;;;;;;;-0.20;90.50;;;;;;4990490;23;20388;-80
2023/12/05 19:19:34;;;;;;;;;;;-0.10;90.50;;;;;;4991720;23;19940;-81
2023/12/05 19:21:55;;;;;;;;;;;-0.10;90.40;;;;;;4991199;23;19926;-82
2023/12/05 19:24:15;;;;;;;;;;;0.00;90.40;;;;;;4992343;23;19926;-81
2023/12/05 19:26:36;;;;;;;;;;;0.10;90.50;;;;;;5051392;22;19909;-82
2023/12/05 19:28:59;;;;;;;;;;;0.00;90.30;;;;;;5167896;22;19903;-82
2023/12/05 19:31:20;;;;;;;;;;;-0.10;90.10;;;;;;5166953;22;19916;-81
2023/12/05 19:33:20;;;;;;;;;;;0.00;90.30;;;;;;5164691;23;19990;-81
2023/12/05 19:35:21;;;;;;;;;;;0.10;90.60;;;;;;5164723;23;20022;-81
2023/12/05 19:37:22;;;;;;;;;;;0.10;90.30;;;;;;5165679;23;20347;-81
2023/12/05 19:39:23;;;;;;;;;;;-0.10;90.20;;;;;;5188207;22;19933;-82
2023/12/05 19:41:24;;;;;;;;;;;0.00;90.30;;;;;;5138653;23;19908;-83
2023/12/05 19:43:25;;;;;;;;;;;-0.10;90.20;;;;;;5136531;23;19908;-81
2023/12/05 19:45:26;;;;;;;;;;;-0.10;90.40;;;;;;5137300;23;19908;-82
2023/12/05 19:47:27;;;;;;;;;;;-0.20;90.40;;;;;;5161692;23;19966;-82
2023/12/05 19:49:28;;;;;;;;;;;0.00;90.60;;;;;;5138410;23;19912;-82
2023/12/05 19:51:32;;;;;;;;;;;0.00;90.40;;;;;;5138135;23;19908;-82
2023/12/05 19:53:33;;;;;;;;;;;0.00;90.50;;;;;;5163101;23;19907;-82
2023/12/05 19:55:54;;;;;;;;;;;0.00;90.40;;;;;;5186254;22;19907;-81
2023/12/05 19:57:55;;;;;;;;;;;0.00;90.50;;;;;;5135325;23;19938;-82
2023/12/05 20:00:18;;;;;;;;;;;0.10;90.80;;;;;;5168592;22;19907;-81
2023/12/05 20:02:39;;;;;;;;;;;0.00;90.30;;;;;;5168278;22;19931;-82
2023/12/05 20:04:59;;;;;;;;;;;0.10;90.20;;;;;;5192894;22;19907;-82
2023/12/05 20:07:20;;;;;;;;;;;0.10;90.10;;;;;;5171058;22;20380;-82
2023/12/05 20:09:21;;;;;;;;;;;0.10;90.10;;;;;;5165755;23;19927;-82
2023/12/05 20:11:41;;;;;;;;;;;0.10;90.40;;;;;;5171018;22;19931;-83
2023/12/05 20:14:02;;;;;;;;;;;0.20;90.30;;;;;;5191471;22;19914;-82
2023/12/05 20:16:23;;;;;;;;;;;0.10;90.40;;;;;;5166876;22;19914;-82
2023/12/05 20:18:28;;;;;;;;;;;0.20;90.70;;;;;;5141377;23;19908;-81
2023/12/05 20:20:49;;;;;;;;;;;0.20;90.40;;;;;;5191262;22;19911;-81
2023/12/05 20:23:12;;;;;;;;;;;0.30;90.40;;;;;;5169248;22;20344;-81
2023/12/05 20:25:33;;;;;;;;;;;0.40;90.30;;;;;;5167902;22;19907;-80
2023/12/05 20:27:53;;;;;;;;;;;0.40;90.10;;;;;;5190596;22;19986;-81
2023/12/05 20:30:14;;;;;;;;;;;0.40;90.00;;;;;;5190844;22;19934;-81
2023/12/05 20:32:34;;;;;;;;;;;0.50;89.90;;;;;;5189471;22;19907;-82
2023/12/05 20:34:55;;;;;;;;;;;0.50;89.90;;;;;;5191397;22;19914;-81
2023/12/05 20:37:15;;;;;;;;;;;0.20;89.90;;;;;;5166951;22;19912;-83
2023/12/05 20:39:39;;;;;;;;;;;0.20;90.00;;;;;;5159014;22;19979;-82
2023/12/05 20:41:39;;;;;;;;;;;0.10;90.30;;;;;;5190127;22;20558;-82
2023/12/05 20:43:41;;;;;;;;;;;0.20;90.30;;;;;;5164100;23;19908;-82
2023/12/05 20:46:04;;;;;;;;;;;0.10;90.30;;;;;;5189691;22;19922;-82
2023/12/05 20:48:25;;;;;;;;;;;0.20;90.30;;;;;;5189601;22;19908;-81
2023/12/05 20:50:40;;;;;;;;;;;0.10;90.10;;;;;;5135832;23;20565;-82
2023/12/05 20:53:01;;;;;;;;;;;0.00;90.30;;;;;;5164981;22;19961;-81
2023/12/05 20:55:21;;;;;;;;;;;0.00;90.40;;;;;;5164773;22;19949;-82
2023/12/05 20:57:42;;;;;;;;;;;0.00;90.50;;;;;;5187893;22;19907;-81
2023/12/05 21:00:03;;;;;;;;;;;0.10;90.30;;;;;;5188982;22;19907;-81
2023/12/05 21:02:24;;;;;;;;;;;0.10;90.40;;;;;;5186681;22;19990;-82
2023/12/05 21:04:45;;;;;;;;;;;0.10;90.40;;;;;;5188434;22;19907;-82
2023/12/05 21:07:05;;;;;;;;;;;0.20;90.40;;;;;;5186977;22;20446;-82
2023/12/05 21:09:26;;;;;;;;;;;0.00;90.40;;;;;;5187737;22;19917;-82
2023/12/05 21:11:46;;;;;;;;;;;-0.10;90.40;;;;;;5187603;22;19935;-82
2023/12/05 21:14:07;;;;;;;;;;;0.00;90.50;;;;;;5164209;22;19908;-81
2023/12/05 21:16:27;;;;;;;;;;;0.20;90.60;;;;;;5187394;22;19907;-81
2023/12/05 21:18:51;;;;;;;;;;;0.30;90.40;;;;;;5164332;22;20355;-81
2023/12/05 21:21:12;;;;;;;;;;;0.20;90.00;;;;;;5164283;22;19926;-81
2023/12/05 21:23:36;;;;;;;;;;;0.10;90.00;;;;;;5163974;22;19908;-81
2023/12/05 21:25:57;;;;;;;;;;;0.20;89.90;;;;;;5186307;22;19907;-82
2023/12/05 21:28:23;;;;;;;;;;;0.20;90.20;;;;;;5189252;22;19983;-82
2023/12/05 21:30:23;;;;;;;;;;;0.10;89.80;;;;;;5161746;23;20386;-81
2023/12/05 21:32:24;;;;;;;;;;;0.20;90.00;;;;;;5160467;23;19907;-82
2023/12/05 21:34:25;;;;;;;;;;;0.10;89.80;;;;;;5134103;23;19987;-81
2023/12/05 21:36:25;;;;;;;;;;;0.10;90.00;;;;;;5186088;22;19907;-82
2023/12/05 21:38:26;;;;;;;;;;;0.20;90.30;;;;;;5155185;23;19978;-82
2023/12/05 21:40:27;;;;;;;;;;;0.20;90.00;;;;;;5186659;22;20091;-82
2023/12/05 21:42:47;;;;;;;;;;;0.20;89.90;;;;;;5185676;22;19930;-82
2023/12/05 21:44:48;;;;;;;;;;;0.20;89.80;;;;;;5157818;23;20513;-81
2023/12/05 21:47:09;;;;;;;;;;;0.10;89.70;;;;;;5183556;22;19915;-83
2023/12/05 21:49:29;;;;;;;;;;;0.20;90.00;;;;;;5184266;22;19912;-82
2023/12/05 21:51:50;;;;;;;;;;;0.30;90.10;;;;;;5164312;22;19916;-80
2023/12/05 21:54:11;;;;;;;;;;;0.30;89.90;;;;;;5185910;22;19985;-82
2023/12/05 21:56:31;;;;;;;;;;;0.20;89.70;;;;;;5185250;22;19935;-82
2023/12/05 21:58:32;;;;;;;;;;;0.10;89.80;;;;;;5184786;22;19914;-82
2023/12/05 22:00:52;;;;;;;;;;;0.00;89.80;;;;;;5186678;22;19907;-82
2023/12/05 22:03:13;;;;;;;;;;;0.00;90.10;;;;;;5188350;22;19921;-82
2023/12/05 22:05:34;;;;;;;;;;;0.00;90.30;;;;;;5187394;22;19911;-83
2023/12/05 22:07:55;;;;;;;;;;;0.00;90.40;;;;;;5164997;22;19930;-82
2023/12/05 22:10:18;;;;;;;;;;;-0.10;90.30;;;;;;5188512;22;19907;-81
2023/12/05 22:12:39;;;;;;;;;;;-0.20;90.30;;;;;;5166843;22;19914;-82
2023/12/05 22:15:00;;;;;;;;;;;-0.20;90.40;;;;;;5189160;22;19964;-81
2023/12/05 22:17:20;;;;;;;;;;;-0.10;90.60;;;;;;5188047;22;19920;-82
2023/12/05 22:19:41;;;;;;;;;;;-0.30;90.50;;;;;;5165315;22;19907;-82
2023/12/05 22:22:01;;;;;;;;;;;-0.20;90.80;;;;;;5188390;22;19907;-82
2023/12/05 22:24:22;;;;;;;;;;;-0.20;90.60;;;;;;5184838;22;19908;-81
2023/12/05 22:26:42;;;;;;;;;;;-0.20;90.70;;;;;;5184587;22;20024;-82
2023/12/05 22:29:06;;;;;;;;;;;-0.30;90.40;;;;;;5187298;22;19946;-82
2023/12/05 22:31:27;;;;;;;;;;;-0.30;90.70;;;;;;5190205;22;19986;-82
2023/12/05 22:33:33;;;;;;;;;;;-0.20;90.60;;;;;;5163765;22;19907;-82
2023/12/05 22:38:38;;;;;;;;;;;-0.20;90.40;;;;;;5087504;23;19960;-81
2023/12/05 22:40:48;;;;;;;;;;;0.10;90.60;;;;;;5086287;23;20507;-82
2023/12/05 22:43:10;;;;;;;;;;;0.00;90.50;;;;;;5086721;23;20519;-82
2023/12/05 22:48:18;;;;;;;;;;;0.00;90.50;;;;;;4988841;23;19925;-82
2023/12/05 22:53:51;;;;;;;;;;;-0.10;90.40;;;;;;4983859;23;19909;-82
2023/12/05 22:56:12;;;;;;;;;;;-0.10;90.50;;;;;;4994450;23;19973;-84
2023/12/05 22:58:19;;;;;;;;;;;0.00;90.50;;;;;;5036668;23;19912;-82
2023/12/05 23:00:39;;;;;;;;;;;0.00;90.40;;;;;;5013717;23;19917;-84
2023/12/05 23:02:59;;;;;;;;;;;0.00;90.40;;;;;;5016218;23;19928;-81
2023/12/05 23:05:21;;;;;;;;;;;0.00;90.40;;;;;;5017549;23;19917;-82
2023/12/05 23:07:41;;;;;;;;;;;0.00;90.40;;;;;;5015907;23;19906;-83
2023/12/05 23:10:02;;;;;;;;;;;0.00;90.60;;;;;;5016863;23;20031;-82
2023/12/05 23:12:22;;;;;;;;;;;0.10;90.40;;;;;;5014626;23;19905;-83
2023/12/05 23:14:43;;;;;;;;;;;0.00;90.30;;;;;;5040011;23;19932;-83
2023/12/05 23:16:44;;;;;;;;;;;0.00;90.50;;;;;;5087458;23;19908;-82
2023/12/05 23:18:44;;;;;;;;;;;0.00;90.30;;;;;;5063330;23;19916;-83
2023/12/05 23:20:45;;;;;;;;;;;0.10;90.30;;;;;;5088758;23;19904;-82
2023/12/05 23:23:05;;;;;;;;;;;0.10;90.20;;;;;;5086956;23;19987;-81
2023/12/05 23:25:06;;;;;;;;;;;0.10;90.40;;;;;;5088305;23;19908;-82
2023/12/05 23:27:27;;;;;;;;;;;0.00;90.10;;;;;;5086787;23;20363;-81
2023/12/05 23:29:48;;;;;;;;;;;0.10;90.30;;;;;;5093205;22;19914;-83
2023/12/05 23:32:09;;;;;;;;;;;0.10;90.00;;;;;;5169038;22;19908;-83
2023/12/05 23:34:32;;;;;;;;;;;0.10;90.20;;;;;;5191979;22;19910;-83
2023/12/05 23:36:53;;;;;;;;;;;0.10;90.00;;;;;;5191029;22;19926;-83
2023/12/05 23:39:13;;;;;;;;;;;0.00;90.60;;;;;;5191503;22;19913;-83
2023/12/05 23:41:34;;;;;;;;;;;0.00;90.20;;;;;;5190606;22;19908;-84
2023/12/05 23:43:54;;;;;;;;;;;0.10;90.30;;;;;;5164665;22;19907;-82
2023/12/05 23:45:55;;;;;;;;;;;0.00;90.40;;;;;;5136638;23;19928;-83
2023/12/05 23:48:15;;;;;;;;;;;0.00;90.40;;;;;;5183987;22;19907;-82
2023/12/05 23:50:36;;;;;;;;;;;0.10;90.40;;;;;;5188291;22;19907;-82
2023/12/05 23:52:56;;;;;;;;;;;0.10;90.10;;;;;;5166355;22;19914;-82
2023/12/05 23:55:09;;;;;;;;;;;0.20;90.30;;;;;;5188226;22;19910;-82
2023/12/05 23:57:29;;;;;;;;;;;0.20;90.30;;;;;;5188848;22;19904;-83
2023/12/05 23:59:50;;;;;;;;;;;0.10;90.00;;;;;;5166336;22;19940;-83
